Time;durP1;ratioP1;P1;durP2;ratioP2;P2;SDS_P1;SDS_P2;PMS_P1;PMS_P2;Temp;Humidity;BMP_temperature;BMP_pressure;BME280_temperature;BME280_humidity;BME280_pressure;Samples;Min_cycle;Max_cycle;Signal;HPM_P1;HPM_P2
2021/06/04 00:00:20;;;;;;;24.40;22.40;;;;;;;;;;5088423;28;20441;-75
2021/06/04 00:02:46;;;;;;;24.60;22.57;;;;;;;;;;5070257;28;20912;-73
2021/06/04 00:05:13;;;;;;;25.30;23.20;;;;;;;;;;5084307;28;20441;-75
2021/06/04 00:07:39;;;;;;;26.33;24.10;;;;;;;;;;5056812;28;20428;-76
2021/06/04 00:10:09;;;;;;;23.90;21.90;;;;;;;;;;5055056;28;20436;-75
2021/06/04 00:12:35;;;;;;;25.27;23.30;;;;;;;;;;5065748;28;20419;-73
2021/06/04 00:15:01;;;;;;;27.33;24.93;;;;;;;;;;5054411;28;20463;-74
2021/06/04 00:17:27;;;;;;;26.20;23.93;;;;;;;;;;5054432;28;20408;-72
2021/06/04 00:19:53;;;;;;;26.30;24.10;;;;;;;;;;5065948;28;20420;-72
2021/06/04 00:22:22;;;;;;;25.73;23.50;;;;;;;;;;5055609;28;20481;-72
2021/06/04 00:24:50;;;;;;;26.90;24.70;;;;;;;;;;5054382;28;20502;-76
2021/06/04 00:27:16;;;;;;;26.83;24.63;;;;;;;;;;5054762;28;20796;-77
2021/06/04 00:29:43;;;;;;;26.70;24.60;;;;;;;;;;5070544;28;20411;-76
2021/06/04 00:32:10;;;;;;;25.77;23.67;;;;;;;;;;5074578;28;20810;-76
2021/06/04 00:34:36;;;;;;;25.67;23.47;;;;;;;;;;5074498;28;20550;-76
2021/06/04 00:37:02;;;;;;;26.97;24.77;;;;;;;;;;5069378;28;20407;-71
2021/06/04 00:39:30;;;;;;;28.43;26.10;;;;;;;;;;5054293;28;20412;-72
2021/06/04 00:41:59;;;;;;;28.83;26.40;;;;;;;;;;5054231;28;20431;-73
2021/06/04 00:44:26;;;;;;;26.93;24.77;;;;;;;;;;5054433;28;20418;-73
2021/06/04 00:46:52;;;;;;;27.10;24.80;;;;;;;;;;5054397;28;20420;-75
2021/06/04 00:49:18;;;;;;;26.77;24.57;;;;;;;;;;5053936;28;20419;-74
2021/06/04 00:51:50;;;;;;;25.90;23.83;;;;;;;;;;5053966;28;20835;-74
2021/06/04 00:54:17;;;;;;;25.93;23.67;;;;;;;;;;5054037;28;20469;-72
2021/06/04 00:56:43;;;;;;;28.10;25.90;;;;;;;;;;5054250;28;20415;-72
2021/06/04 00:59:11;;;;;;;28.00;25.73;;;;;;;;;;5054006;28;20419;-72
2021/06/04 01:01:37;;;;;;;28.63;26.30;;;;;;;;;;5054021;28;20835;-71
2021/06/04 01:04:07;;;;;;;30.10;27.60;;;;;;;;;;5053583;28;20983;-73
2021/06/04 01:06:48;;;;;;;29.47;26.93;;;;;;;;;;5054021;28;20485;-75
2021/06/04 01:09:14;;;;;;;27.30;24.80;;;;;;;;;;5062179;28;20887;-72
2021/06/04 01:11:52;;;;;;;25.97;23.87;;;;;;;;;;5073844;28;20433;-74
2021/06/04 01:14:32;;;;;;;29.00;26.70;;;;;;;;;;5064514;28;20567;-72
2021/06/04 01:17:04;;;;;;;27.90;25.60;;;;;;;;;;5073951;28;20411;-75
2021/06/04 01:19:42;;;;;;;27.40;25.20;;;;;;;;;;5073582;28;20409;-77
2021/06/04 01:22:13;;;;;;;29.17;26.63;;;;;;;;;;5073483;28;20440;-72
2021/06/04 01:24:47;;;;;;;30.17;27.70;;;;;;;;;;5073686;28;20422;-76
2021/06/04 01:27:17;;;;;;;27.07;24.93;;;;;;;;;;5073166;28;20900;-74
2021/06/04 01:29:49;;;;;;;28.87;26.57;;;;;;;;;;5067604;28;20465;-74
2021/06/04 01:32:19;;;;;;;29.77;27.17;;;;;;;;;;5073588;28;20881;-76
2021/06/04 01:34:48;;;;;;;29.77;27.47;;;;;;;;;;5073264;28;20488;-72
2021/06/04 01:37:18;;;;;;;27.43;25.33;;;;;;;;;;5073631;28;20756;-76
2021/06/04 01:39:52;;;;;;;28.73;26.33;;;;;;;;;;5072975;28;20406;-75
2021/06/04 01:42:21;;;;;;;27.87;25.57;;;;;;;;;;5073806;28;20759;-73
2021/06/04 01:44:50;;;;;;;28.27;26.07;;;;;;;;;;5073233;28;20410;-74
2021/06/04 01:47:21;;;;;;;27.43;25.27;;;;;;;;;;5073342;28;20411;-77
2021/06/04 01:49:48;;;;;;;29.13;26.70;;;;;;;;;;5072958;28;20493;-76
2021/06/04 01:52:22;;;;;;;29.03;26.53;;;;;;;;;;5073303;28;20497;-73
2021/06/04 01:54:59;;;;;;;28.97;26.40;;;;;;;;;;5072784;28;20950;-74
2021/06/04 01:57:27;;;;;;;29.10;26.70;;;;;;;;;;5073150;28;20914;-75
2021/06/04 01:59:54;;;;;;;27.93;25.63;;;;;;;;;;5072863;28;20768;-73
2021/06/04 02:02:21;;;;;;;30.80;28.20;;;;;;;;;;5073270;28;20415;-72
2021/06/04 02:04:50;;;;;;;30.33;27.73;;;;;;;;;;5072813;28;20475;-76
2021/06/04 02:07:19;;;;;;;28.00;25.70;;;;;;;;;;5070319;28;20427;-73
2021/06/04 02:09:46;;;;;;;27.80;25.60;;;;;;;;;;5064660;28;20739;-74
2021/06/04 02:12:12;;;;;;;30.43;28.03;;;;;;;;;;5054524;28;20411;-72
2021/06/04 02:14:49;;;;;;;29.10;26.50;;;;;;;;;;5052482;28;20542;-75
2021/06/04 02:17:15;;;;;;;30.67;28.23;;;;;;;;;;5053172;28;20407;-73
2021/06/04 02:19:53;;;;;;;30.57;28.07;;;;;;;;;;5052755;28;20427;-72
2021/06/04 02:22:26;;;;;;;30.70;27.87;;;;;;;;;;5052932;28;20419;-72
2021/06/04 02:25:01;;;;;;;29.70;27.30;;;;;;;;;;5052315;28;20469;-73
2021/06/04 02:27:32;;;;;;;30.57;27.97;;;;;;;;;;5053412;28;20912;-76
2021/06/04 02:30:01;;;;;;;28.60;26.30;;;;;;;;;;5068501;28;20429;-76
2021/06/04 02:32:35;;;;;;;30.70;27.93;;;;;;;;;;5072589;28;20418;-71
2021/06/04 02:35:15;;;;;;;31.87;29.27;;;;;;;;;;5072447;28;20793;-74
2021/06/04 02:37:45;;;;;;;30.90;28.40;;;;;;;;;;5074586;28;20402;-75
2021/06/04 02:40:18;;;;;;;30.37;27.87;;;;;;;;;;5076772;28;20458;-75
2021/06/04 02:42:49;;;;;;;16.30;14.40;;;;;;;;;;5076343;28;20414;-77
2021/06/04 02:45:15;;;;;;;28.07;25.67;;;;;;;;;;5076766;28;20414;-76
2021/06/04 02:47:47;;;;;;;30.70;28.20;;;;;;;;;;5076341;28;20444;-75
2021/06/04 02:50:19;;;;;;;32.07;29.40;;;;;;;;;;5076419;28;20967;-74
2021/06/04 02:52:45;;;;;;;31.90;29.30;;;;;;;;;;5076362;28;20416;-72
2021/06/04 02:55:14;;;;;;;31.47;28.67;;;;;;;;;;5076219;28;20465;-74
2021/06/04 02:57:40;;;;;;;30.53;27.93;;;;;;;;;;5076146;28;20413;-75
2021/06/04 03:00:09;;;;;;;32.63;29.83;;;;;;;;;;5076149;28;20426;-74
2021/06/04 03:02:35;;;;;;;32.40;29.60;;;;;;;;;;5076409;28;20441;-71
2021/06/04 03:05:07;;;;;;;32.20;29.50;;;;;;;;;;5075820;28;20411;-74
2021/06/04 03:07:35;;;;;;;32.90;30.00;;;;;;;;;;5071320;28;20422;-75
2021/06/04 03:10:03;;;;;;;31.70;28.90;;;;;;;;;;5069821;28;20417;-74
2021/06/04 03:12:31;;;;;;;32.20;29.60;;;;;;;;;;5056447;28;20566;-72
2021/06/04 03:14:57;;;;;;;30.80;28.20;;;;;;;;;;5055770;28;20513;-72
2021/06/04 03:17:26;;;;;;;31.73;29.13;;;;;;;;;;5055985;28;20407;-73
2021/06/04 03:19:52;;;;;;;29.37;27.07;;;;;;;;;;5055959;28;20826;-74
2021/06/04 03:22:32;;;;;;;31.07;28.57;;;;;;;;;;5056057;28;20403;-72
2021/06/04 03:25:01;;;;;;;32.17;29.57;;;;;;;;;;5055566;28;20505;-73
2021/06/04 03:27:27;;;;;;;32.20;29.50;;;;;;;;;;5056712;28;20518;-73
2021/06/04 03:29:53;;;;;;;26.60;24.10;;;;;;;;;;5070127;28;21008;-74
2021/06/04 03:32:19;;;;;;;22.17;20.10;;;;;;;;;;5076359;28;20421;-76
2021/06/04 03:34:47;;;;;;;26.50;24.00;;;;;;;;;;5075423;28;20463;-76
2021/06/04 03:37:14;;;;;;;25.10;23.10;;;;;;;;;;5075880;28;20917;-73
2021/06/04 03:39:41;;;;;;;25.13;22.87;;;;;;;;;;5075634;28;20444;-74
2021/06/04 03:42:09;;;;;;;24.60;22.60;;;;;;;;;;5075936;28;20421;-73
2021/06/04 03:44:36;;;;;;;24.50;22.50;;;;;;;;;;5075069;28;20509;-76
2021/06/04 03:47:02;;;;;;;24.63;22.67;;;;;;;;;;5075740;28;20422;-72
2021/06/04 03:49:28;;;;;;;23.97;21.90;;;;;;;;;;5074403;28;20420;-74
2021/06/04 03:51:56;;;;;;;24.70;22.70;;;;;;;;;;5075425;28;20933;-75
2021/06/04 03:54:24;;;;;;;22.70;21.00;;;;;;;;;;5075122;28;20418;-74
2021/06/04 03:56:50;;;;;;;24.20;22.03;;;;;;;;;;5075784;28;20459;-74
2021/06/04 03:59:17;;;;;;;20.80;19.10;;;;;;;;;;5075714;28;20417;-72
2021/06/04 04:01:45;;;;;;;20.83;18.73;;;;;;;;;;5061887;28;20430;-73
2021/06/04 04:04:11;;;;;;;20.43;18.93;;;;;;;;;;5055447;28;20427;-76
2021/06/04 04:06:37;;;;;;;20.10;18.50;;;;;;;;;;5055352;28;20545;-74
2021/06/04 04:09:05;;;;;;;19.67;18.27;;;;;;;;;;5062223;28;20441;-75
2021/06/04 04:11:31;;;;;;;21.90;20.30;;;;;;;;;;5060885;28;20788;-74
2021/06/04 04:13:57;;;;;;;20.07;18.47;;;;;;;;;;5054881;28;20414;-73
2021/06/04 04:16:23;;;;;;;20.90;19.20;;;;;;;;;;5055111;28;20570;-74
2021/06/04 04:18:49;;;;;;;19.20;17.70;;;;;;;;;;5055306;28;20418;-74
2021/06/04 04:21:15;;;;;;;21.17;19.40;;;;;;;;;;5054991;28;20423;-73
2021/06/04 04:23:43;;;;;;;19.90;18.20;;;;;;;;;;5054556;28;20418;-75
2021/06/04 04:26:12;;;;;;;19.50;17.90;;;;;;;;;;5054855;28;20410;-76
2021/06/04 04:28:40;;;;;;;20.50;18.90;;;;;;;;;;5059629;28;20461;-76
2021/06/04 04:31:07;;;;;;;19.93;18.43;;;;;;;;;;5074700;28;20434;-75
2021/06/04 04:33:33;;;;;;;19.63;18.03;;;;;;;;;;5074410;28;20422;-76
2021/06/04 04:35:59;;;;;;;20.10;18.50;;;;;;;;;;5074516;28;20812;-74
2021/06/04 04:38:25;;;;;;;18.13;16.63;;;;;;;;;;5074557;28;20902;-72
2021/06/04 04:40:58;;;;;;;19.50;18.10;;;;;;;;;;5074211;28;20461;-74
2021/06/04 04:43:25;;;;;;;21.07;19.17;;;;;;;;;;5074453;28;20415;-77
2021/06/04 04:45:51;;;;;;;19.00;17.60;;;;;;;;;;5074136;28;20469;-77
2021/06/04 04:48:17;;;;;;;17.60;16.30;;;;;;;;;;5074299;28;20437;-74
2021/06/04 04:50:43;;;;;;;16.60;15.20;;;;;;;;;;5074049;28;20513;-77
2021/06/04 04:53:09;;;;;;;17.40;16.00;;;;;;;;;;5074098;28;20771;-73
2021/06/04 04:55:39;;;;;;;16.00;14.73;;;;;;;;;;5074126;28;20461;-78
2021/06/04 04:58:06;;;;;;;17.27;15.97;;;;;;;;;;5074626;28;20415;-75
2021/06/04 05:00:32;;;;;;;18.30;16.80;;;;;;;;;;5071753;28;20434;-71
2021/06/04 05:02:59;;;;;;;19.33;17.83;;;;;;;;;;5073611;28;20422;-72
2021/06/04 05:05:26;;;;;;;17.90;16.50;;;;;;;;;;5073474;28;20468;-75
2021/06/04 05:07:52;;;;;;;18.77;17.17;;;;;;;;;;5065849;28;20411;-75
2021/06/04 05:10:18;;;;;;;17.63;16.33;;;;;;;;;;5071111;28;20430;-74
2021/06/04 05:12:44;;;;;;;16.67;15.43;;;;;;;;;;5066159;28;20415;-71
2021/06/04 05:15:13;;;;;;;17.70;16.37;;;;;;;;;;5053718;28;20466;-76
2021/06/04 05:17:40;;;;;;;16.70;15.50;;;;;;;;;;5053391;28;20418;-71
2021/06/04 05:20:06;;;;;;;17.33;15.83;;;;;;;;;;5053646;28;20790;-73
2021/06/04 05:22:32;;;;;;;16.57;15.20;;;;;;;;;;5053473;28;20924;-71
2021/06/04 05:24:58;;;;;;;15.50;14.10;;;;;;;;;;5053493;28;20415;-71
2021/06/04 05:27:24;;;;;;;16.23;14.90;;;;;;;;;;5053717;28;20506;-75
2021/06/04 05:29:50;;;;;;;15.30;14.07;;;;;;;;;;5067354;28;20768;-73
2021/06/04 05:32:17;;;;;;;16.37;15.13;;;;;;;;;;5073360;28;20406;-72
2021/06/04 05:34:43;;;;;;;15.80;14.60;;;;;;;;;;5073504;28;20458;-71
2021/06/04 05:37:09;;;;;;;15.40;14.20;;;;;;;;;;5073271;28;20415;-75
2021/06/04 05:39:35;;;;;;;15.00;13.90;;;;;;;;;;5073417;28;20410;-74
2021/06/04 05:42:03;;;;;;;15.93;14.63;;;;;;;;;;5073347;28;20761;-73
2021/06/04 05:44:30;;;;;;;15.10;13.70;;;;;;;;;;5073201;28;20755;-76
2021/06/04 05:46:59;;;;;;;16.10;14.90;;;;;;;;;;5073224;28;20419;-72
2021/06/04 05:49:26;;;;;;;14.87;13.67;;;;;;;;;;5073030;28;20816;-75
2021/06/04 05:51:54;;;;;;;16.10;14.87;;;;;;;;;;5073141;28;20443;-75
2021/06/04 05:54:20;;;;;;;16.73;15.30;;;;;;;;;;5071297;28;20935;-71
2021/06/04 05:56:47;;;;;;;15.00;13.87;;;;;;;;;;5073105;28;20418;-74
2021/06/04 05:59:15;;;;;;;14.43;13.40;;;;;;;;;;5073033;28;20417;-74
2021/06/04 06:01:41;;;;;;;15.37;14.10;;;;;;;;;;5073151;28;20819;-74
2021/06/04 06:04:07;;;;;;;13.37;12.30;;;;;;;;;;5072335;28;20760;-72
2021/06/04 06:06:33;;;;;;;15.03;13.63;;;;;;;;;;5072851;28;20460;-73
2021/06/04 06:08:59;;;;;;;13.80;12.60;;;;;;;;;;5061692;28;20414;-76
2021/06/04 06:11:27;;;;;;;14.00;12.90;;;;;;;;;;5060098;28;20434;-77
2021/06/04 06:13:53;;;;;;;13.70;12.73;;;;;;;;;;5052757;28;20475;-73
2021/06/04 06:16:19;;;;;;;15.97;14.77;;;;;;;;;;5052638;28;20463;-74
2021/06/04 06:18:45;;;;;;;15.90;14.60;;;;;;;;;;5053245;28;20419;-74
2021/06/04 06:21:12;;;;;;;14.37;13.20;;;;;;;;;;5052609;28;20431;-72
2021/06/04 06:23:38;;;;;;;14.07;13.07;;;;;;;;;;5052579;28;20404;-76
2021/06/04 06:26:06;;;;;;;14.80;13.70;;;;;;;;;;5052805;28;20411;-76
2021/06/04 06:28:34;;;;;;;14.80;13.50;;;;;;;;;;5056742;28;20474;-75
2021/06/04 06:31:04;;;;;;;14.13;12.97;;;;;;;;;;5072709;28;20792;-75
2021/06/04 06:33:31;;;;;;;13.67;12.60;;;;;;;;;;5072824;28;20421;-74
2021/06/04 06:35:59;;;;;;;14.03;12.90;;;;;;;;;;5072857;28;20468;-77
2021/06/04 06:38:27;;;;;;;13.27;12.27;;;;;;;;;;5072568;28;20408;-74
2021/06/04 06:40:53;;;;;;;14.40;13.20;;;;;;;;;;5072819;28;20506;-77
2021/06/04 06:43:25;;;;;;;13.57;12.47;;;;;;;;;;5072453;28;20744;-74
2021/06/04 06:45:51;;;;;;;14.83;13.67;;;;;;;;;;5072885;28;20443;-73
2021/06/04 06:48:18;;;;;;;14.80;13.23;;;;;;;;;;5072388;28;20422;-71
2021/06/04 06:50:44;;;;;;;14.03;12.93;;;;;;;;;;5072351;28;20818;-71
2021/06/04 06:53:11;;;;;;;14.00;12.83;;;;;;;;;;5072445;28;20802;-78
2021/06/04 06:55:38;;;;;;;14.03;12.70;;;;;;;;;;5071159;28;20962;-73
2021/06/04 06:58:06;;;;;;;15.03;13.93;;;;;;;;;;5072104;28;20468;-73
2021/06/04 07:00:34;;;;;;;15.20;14.00;;;;;;;;;;5072324;28;20423;-78
2021/06/04 07:03:00;;;;;;;15.50;14.23;;;;;;;;;;5072437;28;20818;-80
2021/06/04 07:05:27;;;;;;;15.80;14.23;;;;;;;;;;5072360;28;20922;-75
2021/06/04 07:07:53;;;;;;;13.47;12.23;;;;;;;;;;5064701;28;20419;-74
2021/06/04 07:10:20;;;;;;;13.37;12.47;;;;;;;;;;5065975;28;20474;-74
2021/06/04 07:12:46;;;;;;;13.77;12.67;;;;;;;;;;5051850;28;20423;-74
2021/06/04 07:15:14;;;;;;;14.20;13.00;;;;;;;;;;5052460;28;20461;-76
2021/06/04 07:17:40;;;;;;;13.53;12.30;;;;;;;;;;5052098;28;20446;-78
2021/06/04 07:20:07;;;;;;;13.23;11.97;;;;;;;;;;5052640;28;20482;-71
2021/06/04 07:22:34;;;;;;;12.63;11.57;;;;;;;;;;5052147;28;20422;-73
2021/06/04 07:25:01;;;;;;;12.83;11.73;;;;;;;;;;5054474;28;20490;-77
2021/06/04 07:27:27;;;;;;;12.67;11.67;;;;;;;;;;5056286;28;20411;-72
2021/06/04 07:29:53;;;;;;;12.67;11.50;;;;;;;;;;5070143;28;20418;-78
2021/06/04 07:32:19;;;;;;;13.13;12.03;;;;;;;;;;5076074;28;20417;-76
2021/06/04 07:34:47;;;;;;;12.97;12.07;;;;;;;;;;5075654;28;20454;-73
2021/06/04 07:37:13;;;;;;;12.40;11.50;;;;;;;;;;5075982;28;20411;-75
2021/06/04 07:39:39;;;;;;;12.80;11.67;;;;;;;;;;5075747;28;20445;-76
2021/06/04 07:42:07;;;;;;;12.67;11.70;;;;;;;;;;5057254;28;20438;-78
2021/06/04 07:44:33;;;;;;;12.60;11.60;;;;;;;;;;5074469;28;20783;-76
2021/06/04 07:46:59;;;;;;;12.70;11.80;;;;;;;;;;5063192;28;20414;-76
2021/06/04 07:49:25;;;;;;;12.20;11.40;;;;;;;;;;5059550;28;20434;-74
2021/06/04 07:51:55;;;;;;;13.50;12.50;;;;;;;;;;5055465;28;20435;-79
2021/06/04 07:54:23;;;;;;;12.47;11.37;;;;;;;;;;5055391;28;20470;-74
2021/06/04 07:56:49;;;;;;;13.47;12.47;;;;;;;;;;5054866;28;20818;-77
2021/06/04 07:59:15;;;;;;;12.60;11.70;;;;;;;;;;5051628;28;20491;-78
2021/06/04 08:01:42;;;;;;;12.67;11.50;;;;;;;;;;5061796;28;20430;-74
2021/06/04 08:04:08;;;;;;;12.13;11.33;;;;;;;;;;5051312;28;20403;-79
2021/06/04 08:06:35;;;;;;;12.17;11.30;;;;;;;;;;5051387;28;20443;-77
2021/06/04 08:09:01;;;;;;;12.37;11.47;;;;;;;;;;5049776;28;20477;-78
2021/06/04 08:11:32;;;;;;;12.27;11.37;;;;;;;;;;5051595;28;20435;-77
2021/06/04 08:13:59;;;;;;;13.40;12.30;;;;;;;;;;5057263;28;20877;-78
2021/06/04 08:16:26;;;;;;;11.93;11.13;;;;;;;;;;5057059;28;20509;-77
2021/06/04 08:18:52;;;;;;;13.43;12.53;;;;;;;;;;5051131;28;20415;-75
2021/06/04 08:21:21;;;;;;;12.93;11.87;;;;;;;;;;5051098;28;20465;-74
2021/06/04 08:23:47;;;;;;;12.10;11.30;;;;;;;;;;5050942;28;20473;-76
2021/06/04 08:26:16;;;;;;;11.73;10.93;;;;;;;;;;5051289;28;20415;-77
2021/06/04 08:28:42;;;;;;;12.57;11.70;;;;;;;;;;5055649;28;20447;-78
2021/06/04 08:31:09;;;;;;;13.00;11.90;;;;;;;;;;5070919;28;20474;-78
2021/06/04 08:33:37;;;;;;;14.20;12.87;;;;;;;;;;5070878;28;20425;-76
2021/06/04 08:36:04;;;;;;;13.23;12.23;;;;;;;;;;5070651;28;20462;-77
2021/06/04 08:38:32;;;;;;;13.93;12.80;;;;;;;;;;5061355;28;20415;-77
2021/06/04 08:41:24;;;;;;;13.67;12.47;;;;;;;;;;5050714;28;20431;-75
2021/06/04 08:43:50;;;;;;;11.73;10.73;;;;;;;;;;5050186;28;20427;-75
2021/06/04 08:46:31;;;;;;;12.30;11.50;;;;;;;;;;5050892;28;20415;-74
2021/06/04 08:49:08;;;;;;;13.30;12.30;;;;;;;;;;5050242;28;20415;-73
2021/06/04 08:51:38;;;;;;;12.97;12.03;;;;;;;;;;5060268;28;20488;-77
2021/06/04 08:54:09;;;;;;;12.80;11.80;;;;;;;;;;5070679;28;20414;-78
2021/06/04 08:56:44;;;;;;;12.80;11.80;;;;;;;;;;5069222;28;20474;-76
2021/06/04 08:59:11;;;;;;;11.57;10.77;;;;;;;;;;5070157;28;20421;-75
2021/06/04 09:01:49;;;;;;;11.63;10.63;;;;;;;;;;5070455;28;20441;-76
2021/06/04 09:04:18;;;;;;;11.23;10.43;;;;;;;;;;5056040;28;20430;-77
2021/06/04 09:06:47;;;;;;;13.17;12.10;;;;;;;;;;5050499;28;20501;-76
2021/06/04 09:09:31;;;;;;;13.13;12.03;;;;;;;;;;5050234;28;20419;-76
2021/06/04 09:12:00;;;;;;;11.40;10.70;;;;;;;;;;5050099;28;20439;-81
2021/06/04 09:14:26;;;;;;;11.90;11.00;;;;;;;;;;5049894;28;20407;-79
2021/06/04 09:16:58;;;;;;;11.10;10.30;;;;;;;;;;5050217;28;20777;-75
2021/06/04 09:19:27;;;;;;;11.30;10.40;;;;;;;;;;5049785;28;20845;-75
2021/06/04 09:21:55;;;;;;;17.53;16.23;;;;;;;;;;5049914;28;20443;-77
2021/06/04 09:24:26;;;;;;;10.17;9.47;;;;;;;;;;5051680;28;21010;-77
2021/06/04 09:26:52;;;;;;;11.00;10.20;;;;;;;;;;5056593;28;20411;-78
2021/06/04 09:29:20;;;;;;;12.00;11.20;;;;;;;;;;5068325;28;20831;-76
2021/06/04 09:31:51;;;;;;;12.97;11.87;;;;;;;;;;5050765;28;20431;-74
2021/06/04 09:34:24;;;;;;;12.10;11.30;;;;;;;;;;5060496;28;20981;-77
2021/06/04 09:36:54;;;;;;;11.13;10.40;;;;;;;;;;5049766;28;20458;-76
2021/06/04 09:39:23;;;;;;;11.03;10.20;;;;;;;;;;5053473;28;20408;-77
2021/06/04 09:41:50;;;;;;;11.20;10.50;;;;;;;;;;5050166;28;20453;-74
2021/06/04 09:44:19;;;;;;;11.10;10.33;;;;;;;;;;5049568;28;20416;-74
2021/06/04 09:47:08;;;;;;;11.07;10.33;;;;;;;;;;5049369;28;20423;-76
2021/06/04 09:49:34;;;;;;;10.30;9.60;;;;;;;;;;5050359;28;20458;-77
2021/06/04 09:52:19;;;;;;;9.40;8.63;;;;;;;;;;5069588;28;20441;-78
2021/06/04 09:54:45;;;;;;;9.83;8.93;;;;;;;;;;5069565;28;20485;-74
2021/06/04 09:57:17;;;;;;;15.67;14.57;;;;;;;;;;5069528;28;20720;-79
2021/06/04 09:59:43;;;;;;;10.50;9.70;;;;;;;;;;5069285;28;20904;-79
2021/06/04 10:02:30;;;;;;;9.63;7.90;;;;;;;;;;5069630;28;20475;-72
2021/06/04 10:05:14;;;;;;;9.40;8.77;;;;;;;;;;5067897;28;20433;-78
2021/06/04 10:07:43;;;;;;;9.10;8.47;;;;;;;;;;5069524;28;20422;-79
2021/06/04 10:10:10;;;;;;;9.90;9.40;;;;;;;;;;5069350;28;20965;-75
2021/06/04 10:12:39;;;;;;;9.40;8.90;;;;;;;;;;5067037;28;20441;-74
2021/06/04 10:15:25;;;;;;;9.40;8.70;;;;;;;;;;5051662;28;20538;-78
2021/06/04 10:20:31;;;;;;;8.33;7.83;;;;;;;;;;5050532;28;20530;-78
2021/06/04 10:23:09;;;;;;;9.40;8.80;;;;;;;;;;5049133;28;20415;-74
2021/06/04 10:25:44;;;;;;;8.90;8.40;;;;;;;;;;5057666;28;20442;-77
2021/06/04 10:28:28;;;;;;;8.87;8.33;;;;;;;;;;5066324;28;20403;-76
2021/06/04 10:30:57;;;;;;;9.30;8.53;;;;;;;;;;5062221;28;20511;-74
2021/06/04 10:33:28;;;;;;;9.37;8.73;;;;;;;;;;5069015;28;20402;-81
2021/06/04 10:36:00;;;;;;;8.17;7.67;;;;;;;;;;5069038;28;20470;-79
2021/06/04 10:38:36;;;;;;;8.60;7.97;;;;;;;;;;5067687;28;20433;-79
2021/06/04 10:41:28;;;;;;;7.90;7.50;;;;;;;;;;5068883;28;20429;-79
2021/06/04 10:44:13;;;;;;;8.67;7.97;;;;;;;;;;5052733;28;20423;-76
2021/06/04 10:47:08;;;;;;;8.63;8.03;;;;;;;;;;5068424;28;20422;-77
2021/06/04 10:49:40;;;;;;;9.07;8.33;;;;;;;;;;5045598;28;20443;-76
2021/06/04 10:52:11;;;;;;;8.07;7.47;;;;;;;;;;5068942;28;20462;-78
2021/06/04 10:54:43;;;;;;;9.37;8.50;;;;;;;;;;5068823;28;20510;-74
2021/06/04 10:57:16;;;;;;;8.90;8.30;;;;;;;;;;5068837;28;20819;-75
2021/06/04 10:59:48;;;;;;;8.53;8.00;;;;;;;;;;5072016;28;20460;-79
2021/06/04 11:02:17;;;;;;;7.70;7.20;;;;;;;;;;5072888;28;20409;-79
2021/06/04 11:05:02;;;;;;;7.43;6.93;;;;;;;;;;5072484;28;20934;-78
2021/06/04 11:07:32;;;;;;;7.00;6.50;;;;;;;;;;5072401;28;20911;-81
2021/06/04 11:10:01;;;;;;;6.13;5.73;;;;;;;;;;5072580;28;20417;-78
2021/06/04 11:12:33;;;;;;;7.57;7.17;;;;;;;;;;5067452;28;20855;-74
2021/06/04 11:15:02;;;;;;;7.57;7.17;;;;;;;;;;5052251;28;20467;-79
2021/06/04 11:17:28;;;;;;;7.00;6.60;;;;;;;;;;5052286;28;20777;-80
2021/06/04 11:19:57;;;;;;;7.80;7.23;;;;;;;;;;5052610;28;20416;-76
2021/06/04 11:22:26;;;;;;;8.23;7.60;;;;;;;;;;5052776;28;20411;-80
2021/06/04 11:24:57;;;;;;;7.80;7.30;;;;;;;;;;5052215;28;20820;-78
2021/06/04 11:27:35;;;;;;;6.90;6.50;;;;;;;;;;5052530;28;20899;-78
2021/06/04 11:30:01;;;;;;;8.37;7.87;;;;;;;;;;5054207;28;20489;-79
2021/06/04 11:32:35;;;;;;;7.27;6.77;;;;;;;;;;5052216;28;20773;-79
2021/06/04 11:35:06;;;;;;;7.83;7.43;;;;;;;;;;5051914;28;20485;-76
2021/06/04 11:37:42;;;;;;;8.07;7.37;;;;;;;;;;5051979;28;20415;-77
2021/06/04 11:40:09;;;;;;;8.50;7.73;;;;;;;;;;5052132;28;20442;-81
2021/06/04 11:42:55;;;;;;;7.50;7.10;;;;;;;;;;5051944;28;20418;-81
2021/06/04 11:45:23;;;;;;;8.67;7.80;;;;;;;;;;5051715;28;20415;-80
2021/06/04 11:47:50;;;;;;;8.87;8.20;;;;;;;;;;5051538;28;20443;-77
2021/06/04 11:50:25;;;;;;;8.67;8.07;;;;;;;;;;5059491;28;20446;-79
2021/06/04 11:52:53;;;;;;;8.87;8.27;;;;;;;;;;5071682;28;20406;-78
2021/06/04 11:55:35;;;;;;;9.27;8.67;;;;;;;;;;5071438;28;20454;-77
2021/06/04 11:58:01;;;;;;;10.40;9.60;;;;;;;;;;5071049;28;20447;-73
2021/06/04 12:00:29;;;;;;;8.87;8.27;;;;;;;;;;5056011;28;20513;-75
2021/06/04 12:03:04;;;;;;;8.13;7.63;;;;;;;;;;5051496;28;20422;-78
2021/06/04 12:05:47;;;;;;;8.87;8.37;;;;;;;;;;5077462;28;20470;-79
2021/06/04 12:08:23;;;;;;;7.87;7.43;;;;;;;;;;5072429;28;20911;-74
2021/06/04 12:10:49;;;;;;;8.00;7.60;;;;;;;;;;5050632;28;21025;-76
2021/06/04 12:13:34;;;;;;;9.60;9.00;;;;;;;;;;5063918;28;20888;-77
2021/06/04 12:16:18;;;;;;;8.90;8.40;;;;;;;;;;5051392;28;20458;-73
2021/06/04 12:18:55;;;;;;;9.40;8.70;;;;;;;;;;5060343;28;20418;-80
2021/06/04 12:21:52;;;;;;;9.77;9.27;;;;;;;;;;5071118;28;20472;-76
2021/06/04 12:24:18;;;;;;;9.60;8.90;;;;;;;;;;5070148;28;20437;-76
2021/06/04 12:26:47;;;;;;;8.50;8.00;;;;;;;;;;5051284;28;20896;-80
2021/06/04 12:29:33;;;;;;;8.77;8.23;;;;;;;;;;5049968;28;20469;-75
2021/06/04 12:32:01;;;;;;;7.57;7.07;;;;;;;;;;5050997;28;20488;-76
2021/06/04 12:34:33;;;;;;;8.70;8.10;;;;;;;;;;5050797;28;20781;-78
2021/06/04 12:37:05;;;;;;;7.60;7.20;;;;;;;;;;5050920;28;20463;-75
2021/06/04 12:39:42;;;;;;;6.80;6.30;;;;;;;;;;5050675;28;21057;-78
2021/06/04 12:42:34;;;;;;;7.33;6.83;;;;;;;;;;5050662;28;21041;-78
2021/06/04 12:45:08;;;;;;;8.40;7.73;;;;;;;;;;5045726;28;20439;-78
2021/06/04 12:47:40;;;;;;;6.97;6.57;;;;;;;;;;5050322;28;20423;-76
2021/06/04 12:50:09;;;;;;;8.40;7.90;;;;;;;;;;5057216;28;20438;-74
2021/06/04 12:52:35;;;;;;;8.43;7.93;;;;;;;;;;5070441;28;20468;-79
2021/06/04 12:55:20;;;;;;;9.07;8.63;;;;;;;;;;5070433;28;20462;-77
2021/06/04 12:57:46;;;;;;;10.90;10.13;;;;;;;;;;5061876;28;20473;-81
2021/06/04 13:00:20;;;;;;;28.17;26.10;;;;;;;;;;5052168;28;20423;-80
2021/06/04 13:02:52;;;;;;;9.90;9.30;;;;;;;;;;5060108;28;21194;-82
2021/06/04 13:05:18;;;;;;;11.30;10.60;;;;;;;;;;5050268;28;20423;-78
2021/06/04 13:07:45;;;;;;;10.80;10.00;;;;;;;;;;5050101;28;20468;-78
2021/06/04 13:10:21;;;;;;;11.00;10.30;;;;;;;;;;5068820;28;20444;-74
2021/06/04 13:12:49;;;;;;;10.87;10.00;;;;;;;;;;5055588;28;20485;-76
2021/06/04 13:15:17;;;;;;;10.57;9.80;;;;;;;;;;5050414;28;20964;-78
2021/06/04 13:17:52;;;;;;;9.10;8.50;;;;;;;;;;5050112;28;20411;-79
2021/06/04 13:20:38;;;;;;;10.70;10.00;;;;;;;;;;5050490;28;20439;-75
2021/06/04 13:23:25;;;;;;;9.53;8.93;;;;;;;;;;5057117;28;20457;-78
2021/06/04 13:26:08;;;;;;;9.60;8.80;;;;;;;;;;5069963;28;20809;-78
2021/06/04 13:28:39;;;;;;;10.10;9.50;;;;;;;;;;5069876;28;20471;-80
2021/06/04 13:31:06;;;;;;;11.77;10.83;;;;;;;;;;5070009;28;20488;-75
2021/06/04 13:33:35;;;;;;;7.97;7.27;;;;;;;;;;5069580;28;20422;-77
2021/06/04 13:36:05;;;;;;;7.90;7.40;;;;;;;;;;5069773;28;20486;-80
2021/06/04 13:38:34;;;;;;;7.27;6.67;;;;;;;;;;5069564;28;20791;-76
2021/06/04 13:41:03;;;;;;;7.83;7.23;;;;;;;;;;5069755;28;20537;-76
2021/06/04 13:43:35;;;;;;;7.40;6.90;;;;;;;;;;5069429;28;20418;-78
2021/06/04 13:46:02;;;;;;;6.83;6.43;;;;;;;;;;5069697;28;20414;-81
2021/06/04 13:48:30;;;;;;;7.10;6.70;;;;;;;;;;5052068;28;20415;-79
2021/06/04 13:51:11;;;;;;;6.73;6.23;;;;;;;;;;5062996;28;20434;-77
2021/06/04 13:53:40;;;;;;;8.33;7.73;;;;;;;;;;5069314;28;20425;-75
2021/06/04 13:56:24;;;;;;;8.60;8.00;;;;;;;;;;5069646;28;20462;-74
2021/06/04 13:59:10;;;;;;;9.30;8.60;;;;;;;;;;5069310;28;20501;-79
2021/06/04 14:01:46;;;;;;;8.40;7.90;;;;;;;;;;5064244;28;20860;-81
2021/06/04 14:04:17;;;;;;;9.30;8.70;;;;;;;;;;5049328;28;20807;-79
2021/06/04 14:06:50;;;;;;;8.33;7.60;;;;;;;;;;5049338;28;20446;-80
2021/06/04 14:09:35;;;;;;;8.47;7.83;;;;;;;;;;5050856;28;20477;-75
2021/06/04 14:12:03;;;;;;;8.93;8.10;;;;;;;;;;5067849;28;20516;-78
2021/06/04 14:14:41;;;;;;;8.60;7.93;;;;;;;;;;5063047;28;20424;-76
2021/06/04 14:17:19;;;;;;;8.87;8.27;;;;;;;;;;5062541;28;21167;-74
2021/06/04 14:19:50;;;;;;;9.70;9.00;;;;;;;;;;5057464;28;20405;-74
2021/06/04 14:22:35;;;;;;;9.50;8.90;;;;;;;;;;5055536;28;20404;-77
2021/06/04 14:25:01;;;;;;;10.17;9.50;;;;;;;;;;5060794;28;20402;-80
2021/06/04 14:27:56;;;;;;;10.80;10.00;;;;;;;;;;5052726;28;20509;-76
2021/06/04 14:30:32;;;;;;;10.73;9.87;;;;;;;;;;5048247;28;20450;-78
2021/06/04 14:33:18;;;;;;;10.70;9.97;;;;;;;;;;5070323;28;20414;-75
2021/06/04 14:36:19;;;;;;;10.10;9.50;;;;;;;;;;5053995;28;20520;-78
2021/06/04 14:38:48;;;;;;;10.10;9.50;;;;;;;;;;5028186;28;20420;-77
2021/06/04 14:41:15;;;;;;;10.03;9.43;;;;;;;;;;5049527;28;21050;-77
2021/06/04 14:43:43;;;;;;;11.10;10.30;;;;;;;;;;5053030;28;20521;-78